Shelburn, Indiana
Current Conditions -  °F | °C
As of 11:15 PM on Thursday 27 Nov 2014 (Local Time) from KRSV Reporting Station
Clear Clear  
Wind Chill: -7°   Ceiling: Unl
Heat Index: -7°   Visibility: 10mi
Dew Point: -9°   Wind: 0mph
Humidity: 91%   Direction: NA
Pressure: 30.47"   Gusts: NA
Location:  39.18°N, 87.39°W
Report Text: KRSV 280415Z AUTO 00000KT 10SM CLR M07/M09 A3047 RMK AO2 T10741087
Loading
Personal Weather Stations






























Interactive Weather Map New forecast layout! Learn more

10-Day Weather Forecast

Advertisements
Track Severe Weather on mobile